createdAt,value
2023-01-21T00:01:39.565Z,11.40
2023-01-21T00:04:25.870Z,10.07
2023-01-21T00:07:12.425Z,10.40
2023-01-21T00:10:00.170Z,9.80
2023-01-21T00:12:46.537Z,11.13
2023-01-21T00:15:32.983Z,10.03
2023-01-21T00:18:19.949Z,10.70
2023-01-21T00:21:06.695Z,10.57
2023-01-21T00:23:53.207Z,11.13
2023-01-21T00:26:40.968Z,11.47
2023-01-21T00:29:27.497Z,11.20
2023-01-21T00:32:15.020Z,12.20
2023-01-21T00:35:01.687Z,11.33
2023-01-21T00:37:47.890Z,12.30
2023-01-21T00:40:34.359Z,13.00
2023-01-21T00:43:22.201Z,12.40
2023-01-21T00:46:09.481Z,12.83
2023-01-21T00:48:56.581Z,12.30
2023-01-21T00:51:43.184Z,12.60
2023-01-21T00:54:31.266Z,12.10
2023-01-21T00:57:17.649Z,13.47
2023-01-21T01:00:11.056Z,13.23
2023-01-21T01:02:57.821Z,13.40
2023-01-21T01:05:44.746Z,12.53
2023-01-21T01:08:31.284Z,12.60
2023-01-21T01:11:21.520Z,12.53
2023-01-21T01:14:08.461Z,11.93
2023-01-21T01:16:56.288Z,13.53
2023-01-21T01:19:42.911Z,13.87
2023-01-21T01:22:29.727Z,13.70
2023-01-21T01:25:16.392Z,13.47
2023-01-21T01:28:02.826Z,13.97
2023-01-21T01:30:49.277Z,13.70
2023-01-21T01:33:37.538Z,13.23
2023-01-21T01:36:24.937Z,13.00
2023-01-21T01:39:11.234Z,13.00
2023-01-21T01:41:57.581Z,13.10
2023-01-21T01:45:00.028Z,14.20
2023-01-21T01:47:58.172Z,12.60
2023-01-21T01:50:46.233Z,13.13
2023-01-21T01:53:33.860Z,14.07
2023-01-21T01:56:20.794Z,13.10
2023-01-21T01:59:08.824Z,13.37
2023-01-21T02:01:56.229Z,13.73
2023-01-21T02:04:45.365Z,13.77
2023-01-21T02:07:39.435Z,13.40
2023-01-21T02:10:26.181Z,12.87
2023-01-21T02:13:13.383Z,13.83
2023-01-21T02:16:10.168Z,13.83
2023-01-21T02:19:08.023Z,13.50
2023-01-21T02:22:04.364Z,13.83
2023-01-21T02:25:25.194Z,14.50
2023-01-21T02:28:48.843Z,12.87
2023-01-21T02:32:03.555Z,13.13
2023-01-21T02:34:56.740Z,13.93
2023-01-21T02:37:51.575Z,14.83
2023-01-21T02:40:44.338Z,14.63
2023-01-21T02:43:37.383Z,14.67
2023-01-21T02:46:30.063Z,15.13
2023-01-21T02:49:22.594Z,14.23
2023-01-21T02:52:17.680Z,14.03
2023-01-21T02:55:05.345Z,14.07
2023-01-21T02:57:56.497Z,14.43
2023-01-21T03:00:55.574Z,14.10
2023-01-21T03:04:14.293Z,13.30
2023-01-21T03:07:12.012Z,12.80
2023-01-21T03:10:04.505Z,14.80
2023-01-21T03:13:01.938Z,14.47
2023-01-21T03:16:11.796Z,14.70
2023-01-21T03:19:03.043Z,13.23
2023-01-21T03:21:51.512Z,13.60
2023-01-21T03:24:40.355Z,13.73
2023-01-21T03:27:31.082Z,13.63
2023-01-21T03:30:21.292Z,14.03
2023-01-21T03:33:09.707Z,15.00
2023-01-21T03:35:58.465Z,14.60
2023-01-21T03:38:49.131Z,14.73
2023-01-21T03:41:38.526Z,13.27
2023-01-21T03:44:27.279Z,13.27
2023-01-21T03:47:22.051Z,12.77
2023-01-21T03:50:11.779Z,14.00
2023-01-21T03:52:58.347Z,14.63
2023-01-21T03:55:44.583Z,13.80
2023-01-21T03:58:30.993Z,13.73
2023-01-21T04:01:18.906Z,12.80
2023-01-21T04:04:05.707Z,13.17
2023-01-21T04:06:51.981Z,13.97
2023-01-21T04:09:38.298Z,13.63
2023-01-21T04:12:24.794Z,13.87
2023-01-21T04:15:12.574Z,12.93
2023-01-21T04:18:00.630Z,14.23
2023-01-21T04:20:47.696Z,14.17
2023-01-21T04:23:34.289Z,15.17
2023-01-21T04:26:20.719Z,13.27
2023-01-21T04:29:07.172Z,13.10
2023-01-21T04:31:53.527Z,13.30
2023-01-21T04:34:41.188Z,15.03
2023-01-21T04:37:28.545Z,14.37
2023-01-21T04:40:15.649Z,14.40
2023-01-21T04:43:02.580Z,14.23
2023-01-21T04:45:50.133Z,13.90
2023-01-21T04:48:37.078Z,13.53
2023-01-21T04:51:24.812Z,14.10
2023-01-21T04:54:11.453Z,13.80
2023-01-21T04:56:59.161Z,13.40
2023-01-21T04:59:45.510Z,14.53
2023-01-21T05:02:31.876Z,13.40
2023-01-21T05:05:19.845Z,12.97
2023-01-21T05:08:07.868Z,14.27
2023-01-21T05:10:54.225Z,17.80
2023-01-21T05:13:40.739Z,13.97
2023-01-21T05:16:27.376Z,13.77
2023-01-21T05:19:13.923Z,14.87
2023-01-21T05:22:00.902Z,14.60
2023-01-21T05:24:48.674Z,14.63
2023-01-21T05:27:35.700Z,14.67
2023-01-21T05:30:23.034Z,14.50
2023-01-21T05:33:09.498Z,14.37
2023-01-21T05:35:55.863Z,13.67
2023-01-21T05:38:42.229Z,14.53
2023-01-21T05:41:29.855Z,14.33
2023-01-21T05:44:17.767Z,14.37
2023-01-21T05:47:04.667Z,13.60
2023-01-21T05:49:51.348Z,14.13
2023-01-21T05:52:37.857Z,13.73
2023-01-21T05:55:24.682Z,13.70
2023-01-21T05:58:13.876Z,14.27
2023-01-21T06:01:00.243Z,13.87
2023-01-21T06:03:46.660Z,14.50
2023-01-21T06:06:32.904Z,14.53
2023-01-21T06:09:19.229Z,13.93
2023-01-21T06:12:06.078Z,15.00
2023-01-21T06:14:53.896Z,13.93
2023-01-21T06:17:41.087Z,14.63
2023-01-21T06:20:29.516Z,13.97
2023-01-21T06:23:16.093Z,13.53
2023-01-21T06:26:03.045Z,15.10
2023-01-21T06:28:49.339Z,15.47
2023-01-21T06:31:37.377Z,15.27
2023-01-21T06:34:23.877Z,14.83
2023-01-21T06:37:10.169Z,14.27
2023-01-21T06:39:56.555Z,15.20
2023-01-21T06:42:43.117Z,15.30
2023-01-21T06:45:29.616Z,14.57
2023-01-21T06:48:17.585Z,15.27
2023-01-21T06:51:04.534Z,15.90
2023-01-21T06:53:50.886Z,15.13
2023-01-21T06:56:37.346Z,14.70
2023-01-21T06:59:24.102Z,14.20
2023-01-21T07:02:13.192Z,15.43
2023-01-21T07:05:01.120Z,15.17
2023-01-21T07:07:47.503Z,14.93
2023-01-21T07:10:33.957Z,15.23
2023-01-21T07:13:20.297Z,14.60
2023-01-21T07:16:07.778Z,15.70
2023-01-21T07:18:54.697Z,15.40
2023-01-21T07:21:42.278Z,15.47
2023-01-21T07:24:28.736Z,17.07
2023-01-21T07:27:16.226Z,14.90
2023-01-21T07:30:02.517Z,15.97
2023-01-21T07:32:49.006Z,15.93
2023-01-21T07:35:35.647Z,16.70
2023-01-21T07:38:24.047Z,15.90
2023-01-21T07:41:10.511Z,16.67
2023-01-21T07:43:57.161Z,15.90
2023-01-21T07:46:43.503Z,15.10
2023-01-21T07:49:29.800Z,16.67
2023-01-21T07:52:16.369Z,16.20
2023-01-21T07:55:04.529Z,16.50
2023-01-21T07:57:51.184Z,16.93
2023-01-21T08:00:37.650Z,15.80
2023-01-21T08:03:25.245Z,15.33
2023-01-21T08:06:11.567Z,15.83
2023-01-21T08:08:58.131Z,16.47
2023-01-21T08:11:46.064Z,17.30
2023-01-21T08:14:33.158Z,17.37
2023-01-21T08:17:19.647Z,16.13
2023-01-21T08:20:07.458Z,17.07
2023-01-21T08:22:54.228Z,16.00
2023-01-21T08:25:41.707Z,16.43
2023-01-21T08:28:29.820Z,15.73
2023-01-21T08:31:16.909Z,15.50
2023-01-21T08:34:03.849Z,14.53
2023-01-21T08:36:50.525Z,15.40
2023-01-21T08:39:37.259Z,14.53
2023-01-21T08:42:23.801Z,14.30
2023-01-21T08:45:15.153Z,13.33
2023-01-21T08:48:04.217Z,15.60
2023-01-21T08:50:51.071Z,14.80
2023-01-21T08:53:37.758Z,15.60
2023-01-21T08:56:24.150Z,14.63
2023-01-21T08:59:11.048Z,15.07
2023-01-21T09:01:59.069Z,16.53
2023-01-21T09:04:45.822Z,14.80
2023-01-21T09:07:32.288Z,14.73
2023-01-21T09:10:39.451Z,15.20
2023-01-21T09:13:28.338Z,16.27
2023-01-21T09:16:18.335Z,16.00
2023-01-21T09:19:06.241Z,15.83
2023-01-21T09:21:55.519Z,15.10
2023-01-21T09:24:42.298Z,16.07
2023-01-21T09:27:28.722Z,16.43
2023-01-21T09:30:15.752Z,15.37
2023-01-21T09:33:02.406Z,15.10
2023-01-21T09:35:55.467Z,15.27
2023-01-21T09:38:44.208Z,15.17
2023-01-21T09:41:34.749Z,15.90
2023-01-21T09:44:26.232Z,15.97
2023-01-21T09:47:21.047Z,16.10
2023-01-21T09:50:14.213Z,15.30
2023-01-21T09:53:17.901Z,14.80
2023-01-21T09:56:10.257Z,14.43
2023-01-21T09:59:05.038Z,16.03
2023-01-21T10:01:56.117Z,14.77
2023-01-21T10:04:49.794Z,14.63
2023-01-21T10:07:41.402Z,14.97
2023-01-21T10:10:40.581Z,13.80
2023-01-21T10:13:45.452Z,13.70
2023-01-21T10:16:41.324Z,14.50
2023-01-21T10:19:34.622Z,15.47
2023-01-21T10:22:26.947Z,15.77
2023-01-21T10:25:20.622Z,13.60
2023-01-21T10:28:13.984Z,15.17
2023-01-21T10:31:08.323Z,15.10
2023-01-21T10:33:55.935Z,14.97
2023-01-21T10:36:56.794Z,13.80
2023-01-21T10:39:55.923Z,15.13
2023-01-21T10:43:01.706Z,14.63
2023-01-21T10:45:59.046Z,13.77
2023-01-21T10:48:51.750Z,13.23
2023-01-21T10:51:46.857Z,15.03
2023-01-21T10:54:45.317Z,14.47
2023-01-21T10:57:48.129Z,14.87
2023-01-21T11:00:40.360Z,15.00
2023-01-21T11:03:38.771Z,14.43
2023-01-21T11:06:27.321Z,13.90
2023-01-21T11:09:15.656Z,14.60
2023-01-21T11:12:03.351Z,14.30
2023-01-21T11:14:55.249Z,14.33
2023-01-21T11:17:44.841Z,14.17
2023-01-21T11:20:40.269Z,13.67
2023-01-21T11:23:29.149Z,13.27
2023-01-21T11:26:19.956Z,14.03
2023-01-21T11:29:13.840Z,14.03
2023-01-21T11:32:04.350Z,14.43
2023-01-21T11:34:53.149Z,14.43
2023-01-21T11:37:41.617Z,12.47
2023-01-21T11:40:28.828Z,14.10
2023-01-21T11:43:33.882Z,12.33
2023-01-21T11:46:29.840Z,12.10
2023-01-21T11:49:24.497Z,13.30
2023-01-21T11:52:16.959Z,14.23
2023-01-21T11:55:17.916Z,13.37
2023-01-21T11:58:04.543Z,13.57
2023-01-21T12:00:54.773Z,12.67
2023-01-21T12:03:46.786Z,12.67
2023-01-21T12:06:36.765Z,13.17
2023-01-21T12:09:24.001Z,12.03
2023-01-21T12:12:41.220Z,10.07
2023-01-21T12:15:45.660Z,11.43
2023-01-21T12:18:46.038Z,12.77
2023-01-21T12:21:46.558Z,11.57
2023-01-21T12:24:45.709Z,12.73
2023-01-21T12:27:42.291Z,12.13
2023-01-21T12:30:40.938Z,13.20
2023-01-21T12:33:45.884Z,13.33
2023-01-21T12:36:36.324Z,11.73
2023-01-21T12:39:27.091Z,12.23
2023-01-21T12:42:19.828Z,11.60
2023-01-21T12:45:12.701Z,11.57
2023-01-21T12:48:04.291Z,11.97
2023-01-21T12:50:55.529Z,11.70
2023-01-21T12:53:47.286Z,11.83
2023-01-21T12:56:38.802Z,12.10
2023-01-21T12:59:31.740Z,10.30
2023-01-21T13:02:24.984Z,11.33
2023-01-21T13:05:18.879Z,11.57
2023-01-21T13:08:42.109Z,11.30
2023-01-21T13:11:31.879Z,10.90
2023-01-21T13:14:26.192Z,11.67
2023-01-21T13:17:18.378Z,11.73
2023-01-21T13:20:16.527Z,11.23
2023-01-21T13:23:08.207Z,11.47
2023-01-21T13:26:01.130Z,11.53
2023-01-21T13:28:55.991Z,10.63
2023-01-21T13:31:48.722Z,11.50
2023-01-21T13:34:44.001Z,12.97
2023-01-21T13:37:38.527Z,11.60
2023-01-21T13:40:39.808Z,12.40
2023-01-21T13:43:44.519Z,11.77
2023-01-21T13:46:49.248Z,22.37
2023-01-21T13:49:58.652Z,11.27
2023-01-21T13:53:00.315Z,11.67
2023-01-21T13:55:56.344Z,12.23
2023-01-21T13:58:49.819Z,10.97
2023-01-21T14:01:44.270Z,11.47
2023-01-21T14:04:37.941Z,10.67
2023-01-21T14:07:29.373Z,11.47
2023-01-21T14:10:21.746Z,10.90
2023-01-21T14:13:40.812Z,11.30
2023-01-21T14:16:44.048Z,11.23
2023-01-21T14:19:56.974Z,11.53
2023-01-21T14:22:56.641Z,11.67
2023-01-21T14:26:04.128Z,11.00
2023-01-21T14:29:00.303Z,12.40
2023-01-21T14:31:52.055Z,12.97
2023-01-21T14:34:53.176Z,11.77
2023-01-21T14:37:43.960Z,12.33
2023-01-21T14:40:33.384Z,11.33
2023-01-21T14:43:48.224Z,11.50
2023-01-21T14:46:35.690Z,11.57
2023-01-21T14:49:40.969Z,11.37
2023-01-21T14:52:31.761Z,12.17
2023-01-21T14:55:29.277Z,12.03
2023-01-21T14:58:25.751Z,12.33
2023-01-21T15:01:27.489Z,11.80
2023-01-21T15:04:25.539Z,11.07
2023-01-21T15:07:19.250Z,10.17
2023-01-21T15:10:14.200Z,11.03
2023-01-21T15:13:04.289Z,10.57
2023-01-21T15:16:08.803Z,10.23
2023-01-21T15:19:24.055Z,10.90
2023-01-21T15:22:20.014Z,10.93
2023-01-21T15:25:34.210Z,10.73
2023-01-21T15:28:43.866Z,10.83
2023-01-21T15:31:44.300Z,10.20
2023-01-21T15:34:34.420Z,9.77
2023-01-21T15:37:24.369Z,9.20
2023-01-21T15:40:18.361Z,10.23
2023-01-21T15:43:07.568Z,9.50
2023-01-21T15:46:02.381Z,9.93
2023-01-21T15:49:05.505Z,9.97
2023-01-21T15:52:01.424Z,9.80
2023-01-21T15:54:57.895Z,9.50
2023-01-21T15:57:51.534Z,10.20
2023-01-21T16:00:44.315Z,9.57
2023-01-21T16:03:36.687Z,10.00
2023-01-21T16:06:34.937Z,9.93
2023-01-21T16:09:33.782Z,9.07
2023-01-21T16:12:28.010Z,9.90
2023-01-21T16:15:25.905Z,9.67
2023-01-21T16:18:25.831Z,9.67
2023-01-21T16:21:13.274Z,9.37
2023-01-21T16:24:04.634Z,9.50
2023-01-21T16:26:51.113Z,10.97
2023-01-21T16:29:39.702Z,9.20
2023-01-21T16:32:27.152Z,10.47
2023-01-21T16:35:14.647Z,10.77
2023-01-21T16:38:01.579Z,11.23
2023-01-21T16:40:51.274Z,11.47
2023-01-21T16:43:39.296Z,10.53
2023-01-21T16:46:29.006Z,10.10
2023-01-21T16:49:17.859Z,11.37
2023-01-21T16:52:04.937Z,11.77
2023-01-21T16:54:52.786Z,11.73
2023-01-21T16:57:40.473Z,12.27
2023-01-21T17:00:30.321Z,11.77
2023-01-21T17:03:19.584Z,12.73
2023-01-21T17:06:15.089Z,11.67
2023-01-21T17:09:05.585Z,11.17
2023-01-21T17:11:52.263Z,11.07
2023-01-21T17:14:40.279Z,12.47
2023-01-21T17:17:32.823Z,11.90
2023-01-21T17:20:38.819Z,11.30
2023-01-21T17:23:28.187Z,11.80
2023-01-21T17:26:18.579Z,10.77
2023-01-21T17:29:17.336Z,10.30
2023-01-21T17:32:07.014Z,11.40
2023-01-21T17:35:10.782Z,11.17
2023-01-21T17:37:59.242Z,11.47
2023-01-21T17:41:01.032Z,10.40
2023-01-21T17:43:51.789Z,10.73
2023-01-21T17:46:45.670Z,9.90
2023-01-21T17:49:33.592Z,10.23
2023-01-21T17:52:22.366Z,10.93
2023-01-21T17:55:27.074Z,10.40
2023-01-21T17:58:45.060Z,9.83
2023-01-21T18:01:32.227Z,10.67
2023-01-21T18:04:18.801Z,10.70
2023-01-21T18:07:15.001Z,9.30
2023-01-21T18:10:03.623Z,9.30
2023-01-21T18:12:50.508Z,9.27
2023-01-21T18:15:37.033Z,9.67
2023-01-21T18:18:27.052Z,9.17
2023-01-21T18:21:20.804Z,9.43
2023-01-21T18:24:11.392Z,9.03
2023-01-21T18:26:59.844Z,9.33
2023-01-21T18:29:46.323Z,10.30
2023-01-21T18:32:32.696Z,8.73
2023-01-21T18:35:21.221Z,9.07
2023-01-21T18:38:10.850Z,10.23
2023-01-21T18:40:59.208Z,9.83
2023-01-21T18:43:45.627Z,10.00
2023-01-21T18:46:32.130Z,9.90
2023-01-21T18:49:21.072Z,9.70
2023-01-21T18:52:08.044Z,8.30
2023-01-21T18:54:54.305Z,8.97
2023-01-21T18:57:42.947Z,10.10
2023-01-21T19:00:32.044Z,9.40
2023-01-21T19:03:18.770Z,9.30
2023-01-21T19:06:11.810Z,8.67
2023-01-21T19:08:59.104Z,9.23
2023-01-21T19:11:45.531Z,9.60
2023-01-21T19:14:33.275Z,9.40
2023-01-21T19:17:25.817Z,9.80
2023-01-21T19:20:18.839Z,9.17
2023-01-21T19:23:10.815Z,9.37
2023-01-21T19:25:59.305Z,9.50
2023-01-21T19:28:45.792Z,9.47
2023-01-21T19:31:34.019Z,10.40
2023-01-21T19:34:21.906Z,9.13
2023-01-21T19:37:13.319Z,9.30
2023-01-21T19:39:59.718Z,9.47
2023-01-21T19:42:46.401Z,10.23
2023-01-21T19:45:33.173Z,10.40
2023-01-21T19:48:22.588Z,10.03
2023-01-21T19:51:09.340Z,9.50
2023-01-21T19:53:56.021Z,9.47
2023-01-21T19:56:42.484Z,8.53
2023-01-21T19:59:28.786Z,9.77
2023-01-21T20:02:15.333Z,9.37
2023-01-21T20:05:03.589Z,8.53
2023-01-21T20:07:51.915Z,9.03
2023-01-21T20:10:38.694Z,8.40
2023-01-21T20:13:26.167Z,9.10
2023-01-21T20:16:16.783Z,9.03
2023-01-21T20:19:03.879Z,8.73
2023-01-21T20:22:01.118Z,8.03
2023-01-21T20:24:48.726Z,8.40
2023-01-21T20:27:34.920Z,7.80
2023-01-21T20:30:23.382Z,8.47
2023-01-21T20:33:10.880Z,8.27
2023-01-21T20:35:58.004Z,7.90
2023-01-21T20:38:45.741Z,7.37
2023-01-21T20:41:32.483Z,7.10
2023-01-21T20:44:19.234Z,6.97
2023-01-21T20:47:06.124Z,6.33
2023-01-21T20:49:52.885Z,7.60
2023-01-21T20:52:39.366Z,7.27
2023-01-21T20:55:28.883Z,7.07
2023-01-21T20:58:16.255Z,6.67
2023-01-21T21:01:02.658Z,6.80
2023-01-21T21:03:50.733Z,6.00
2023-01-21T21:06:37.440Z,6.53
2023-01-21T21:09:23.706Z,6.47
2023-01-21T21:12:11.638Z,6.03
2023-01-21T21:14:58.304Z,6.03
2023-01-21T21:17:46.873Z,6.07
2023-01-21T21:20:35.976Z,6.20
2023-01-21T21:23:22.449Z,5.87
2023-01-21T21:26:18.355Z,5.90
2023-01-21T21:29:12.725Z,5.83
2023-01-21T21:32:02.147Z,5.47
2023-01-21T21:34:49.425Z,5.77
2023-01-21T21:37:36.061Z,5.53
2023-01-21T21:40:23.945Z,5.83
2023-01-21T21:43:35.479Z,5.63
2023-01-21T21:46:41.076Z,6.00
2023-01-21T21:49:28.120Z,5.27
2023-01-21T21:52:17.440Z,5.97
2023-01-21T21:55:04.143Z,5.77
2023-01-21T21:57:50.724Z,5.47
2023-01-21T22:00:37.242Z,6.03
2023-01-21T22:03:24.938Z,5.70
2023-01-21T22:06:12.705Z,5.50
2023-01-21T22:08:59.728Z,5.57
2023-01-21T22:11:46.374Z,6.03
2023-01-21T22:14:32.740Z,5.57
2023-01-21T22:17:19.148Z,6.07
2023-01-21T22:20:07.998Z,5.60
2023-01-21T22:22:54.297Z,5.20
2023-01-21T22:25:40.747Z,4.87
2023-01-21T22:28:27.341Z,5.40
2023-01-21T22:31:16.943Z,5.90
2023-01-21T22:34:03.735Z,6.00
2023-01-21T22:36:52.763Z,6.27
2023-01-21T22:39:39.313Z,5.80
2023-01-21T22:42:25.768Z,5.63
2023-01-21T22:45:12.860Z,5.73
2023-01-21T22:47:59.513Z,6.00
2023-01-21T22:50:45.879Z,4.93
2023-01-21T22:53:35.033Z,5.70
2023-01-21T22:56:35.364Z,5.73
2023-01-21T22:59:31.800Z,5.47
2023-01-21T23:02:18.640Z,6.07
2023-01-21T23:05:05.929Z,5.63
2023-01-21T23:07:53.911Z,5.57
2023-01-21T23:10:42.708Z,5.27
2023-01-21T23:13:29.353Z,5.40
2023-01-21T23:16:18.340Z,5.73
2023-01-21T23:19:05.189Z,5.33
2023-01-21T23:21:51.698Z,6.13
2023-01-21T23:24:38.065Z,6.10
2023-01-21T23:27:25.846Z,5.77
2023-01-21T23:30:15.200Z,4.27
2023-01-21T23:33:01.988Z,5.63
2023-01-21T23:35:55.304Z,5.60
2023-01-21T23:38:42.885Z,5.43
2023-01-21T23:41:29.581Z,5.40
2023-01-21T23:44:17.404Z,5.90
2023-01-21T23:47:03.732Z,5.73
2023-01-21T23:49:50.158Z,5.10
2023-01-21T23:52:37.453Z,5.83
2023-01-21T23:55:23.851Z,5.23
2023-01-21T23:58:10.191Z,5.90
